createdAt,value
2018-08-04T00:02:23.517Z,26.00
2018-08-04T00:04:51.734Z,26.00
2018-08-04T00:07:19.896Z,25.90
2018-08-04T00:09:48.109Z,25.90
2018-08-04T00:12:16.262Z,25.80
2018-08-04T00:14:44.449Z,25.70
2018-08-04T00:17:12.654Z,25.70
2018-08-04T00:19:40.846Z,25.60
2018-08-04T00:22:08.949Z,25.60
2018-08-04T00:24:37.101Z,25.50
2018-08-04T00:27:05.525Z,25.50
2018-08-04T00:29:33.690Z,25.40
2018-08-04T00:32:01.874Z,25.40
2018-08-04T00:34:30.050Z,25.40
2018-08-04T00:36:58.225Z,25.30
2018-08-04T00:39:26.331Z,25.30
2018-08-04T00:41:54.506Z,25.20
2018-08-04T00:44:22.718Z,25.20
2018-08-04T00:49:41.379Z,25.20
2018-08-04T00:52:09.477Z,25.10
2018-08-04T00:54:37.655Z,25.00
2018-08-04T00:57:05.731Z,25.00
2018-08-04T00:59:33.830Z,25.00
2018-08-04T01:02:02.019Z,24.90
2018-08-04T01:04:30.218Z,24.80
2018-08-04T01:06:58.387Z,24.80
2018-08-04T01:09:26.586Z,24.70
2018-08-04T01:11:54.752Z,24.70
2018-08-04T01:14:22.850Z,24.60
2018-08-04T01:16:51.035Z,24.60
2018-08-04T01:19:19.217Z,24.60
2018-08-04T01:21:47.395Z,24.50
2018-08-04T01:26:43.453Z,24.40
2018-08-04T01:29:11.546Z,24.40
2018-08-04T01:31:39.647Z,24.30
2018-08-04T01:34:07.831Z,24.30
2018-08-04T01:36:35.917Z,24.20
2018-08-04T01:39:06.125Z,24.20
2018-08-04T01:41:34.234Z,24.20
2018-08-04T01:44:02.478Z,24.20
2018-08-04T01:46:30.605Z,24.10
2018-08-04T01:48:58.998Z,24.10
2018-08-04T01:51:27.201Z,24.10
2018-08-04T01:53:55.806Z,24.10
2018-08-04T01:56:24.104Z,24.00
2018-08-04T01:58:52.533Z,24.00
2018-08-04T02:01:20.673Z,24.00
2018-08-04T02:03:48.826Z,24.00
2018-08-04T02:06:16.913Z,24.00
2018-08-04T02:08:44.995Z,24.00
2018-08-04T02:11:13.085Z,24.00
2018-08-04T02:13:41.185Z,23.90
2018-08-04T02:16:09.378Z,23.90
2018-08-04T02:18:37.536Z,23.90
2018-08-04T02:21:05.646Z,23.80
2018-08-04T02:23:33.810Z,23.80
2018-08-04T02:26:01.909Z,23.80
2018-08-04T02:28:30.086Z,23.70
2018-08-04T02:30:58.191Z,23.80
2018-08-04T02:33:26.358Z,23.80
2018-08-04T02:35:54.847Z,23.80
2018-08-04T02:38:22.930Z,23.70
2018-08-04T02:40:51.020Z,23.70
2018-08-04T02:43:19.099Z,23.70
2018-08-04T02:45:47.226Z,23.60
2018-08-04T02:48:15.367Z,23.60
2018-08-04T02:50:43.474Z,23.60
2018-08-04T02:53:11.638Z,23.50
2018-08-04T02:58:07.706Z,23.50
2018-08-04T03:00:35.793Z,23.40
2018-08-04T03:03:03.998Z,23.40
2018-08-04T03:05:32.190Z,23.40
2018-08-04T03:08:00.353Z,23.40
2018-08-04T03:12:57.434Z,23.30
2018-08-04T03:15:25.526Z,23.20
2018-08-04T03:17:53.610Z,23.20
2018-08-04T03:20:21.757Z,23.20
2018-08-04T03:22:49.874Z,23.20
2018-08-04T03:25:17.974Z,23.10
2018-08-04T03:27:46.054Z,23.10
2018-08-04T03:30:14.142Z,23.10
2018-08-04T03:32:42.220Z,23.00
2018-08-04T03:35:10.450Z,23.00
2018-08-04T03:37:38.597Z,23.00
2018-08-04T03:40:06.681Z,23.00
2018-08-04T03:42:34.770Z,23.00
2018-08-04T03:45:02.845Z,22.90
2018-08-04T03:47:30.946Z,22.90
2018-08-04T03:49:59.113Z,22.90
2018-08-04T03:52:27.214Z,22.80
2018-08-04T03:54:55.401Z,22.80
2018-08-04T03:57:23.582Z,22.80
2018-08-04T03:59:51.665Z,22.80
2018-08-04T04:02:19.998Z,22.80
2018-08-04T04:04:48.138Z,22.70
2018-08-04T04:07:16.229Z,22.70
2018-08-04T04:09:44.438Z,22.70
2018-08-04T04:12:12.653Z,22.70
2018-08-04T04:14:40.857Z,22.70
2018-08-04T04:17:08.979Z,22.70
2018-08-04T04:19:37.050Z,22.70
2018-08-04T04:22:05.356Z,22.70
2018-08-04T04:24:33.534Z,22.60
2018-08-04T04:27:01.625Z,22.60
2018-08-04T04:29:29.801Z,22.60
2018-08-04T04:31:57.890Z,22.60
2018-08-04T04:36:54.012Z,22.70
2018-08-04T04:39:22.034Z,22.70
2018-08-04T04:41:50.127Z,22.70
2018-08-04T04:44:18.206Z,22.70
2018-08-04T04:46:46.310Z,22.80
2018-08-04T04:49:14.474Z,22.80
2018-08-04T04:54:11.089Z,22.90
2018-08-04T04:56:39.246Z,22.90
2018-08-04T04:59:07.329Z,22.90
2018-08-04T05:01:35.441Z,23.00
2018-08-04T05:04:03.606Z,23.00
2018-08-04T05:06:31.695Z,23.00
2018-08-04T05:09:00.123Z,23.10
2018-08-04T05:11:28.277Z,23.10
2018-08-04T05:13:56.451Z,23.10
2018-08-04T05:16:24.550Z,23.20
2018-08-04T05:18:52.718Z,23.20
2018-08-04T05:21:20.829Z,23.20
2018-08-04T05:23:48.986Z,23.20
2018-08-04T05:26:17.181Z,23.30
2018-08-04T05:28:45.261Z,23.30
2018-08-04T05:31:13.362Z,23.30
2018-08-04T05:33:41.534Z,23.30
2018-08-04T05:36:09.626Z,23.40
2018-08-04T05:38:37.702Z,23.30
2018-08-04T05:41:05.831Z,23.40
2018-08-04T05:43:34.030Z,23.40
2018-08-04T05:46:02.206Z,23.40
2018-08-04T05:48:30.375Z,23.50
2018-08-04T05:50:58.536Z,23.50
2018-08-04T05:53:26.622Z,23.60
2018-08-04T05:55:54.722Z,23.60
2018-08-04T05:58:22.957Z,23.70
2018-08-04T06:00:51.077Z,23.70
2018-08-04T06:03:19.178Z,23.80
2018-08-04T06:05:47.358Z,23.90
2018-08-04T06:08:15.542Z,23.90
2018-08-04T06:10:43.622Z,24.00
2018-08-04T06:13:11.737Z,24.00
2018-08-04T06:15:39.895Z,24.00
2018-08-04T06:18:08.314Z,24.00
2018-08-04T06:20:36.474Z,24.10
2018-08-04T06:23:04.568Z,24.10
2018-08-04T06:25:32.754Z,24.20
2018-08-04T06:28:00.938Z,24.20
2018-08-04T06:30:30.030Z,24.20
2018-08-04T06:32:58.136Z,24.20
2018-08-04T06:35:26.310Z,24.30
2018-08-04T06:37:54.402Z,24.30
2018-08-04T06:40:22.586Z,24.40
2018-08-04T06:42:50.766Z,24.50
2018-08-04T06:45:18.845Z,24.60
2018-08-04T06:47:46.939Z,24.60
2018-08-04T06:50:15.014Z,24.70
2018-08-04T06:52:43.155Z,24.80
2018-08-04T06:55:11.186Z,24.80
2018-08-04T06:57:39.282Z,24.90
2018-08-04T07:00:07.514Z,25.00
2018-08-04T07:02:35.658Z,25.10
2018-08-04T07:05:03.966Z,25.20
2018-08-04T07:07:32.041Z,25.30
2018-08-04T07:12:28.098Z,25.50
2018-08-04T07:14:56.278Z,25.60
2018-08-04T07:17:24.366Z,25.70
2018-08-04T07:19:52.613Z,25.80
2018-08-04T07:22:20.793Z,25.90
2018-08-04T07:24:48.928Z,26.10
2018-08-04T07:27:17.039Z,26.20
2018-08-04T07:29:45.233Z,26.20
2018-08-04T07:32:13.412Z,26.30
2018-08-04T07:34:42.425Z,26.40
2018-08-04T07:37:10.572Z,26.50
2018-08-04T07:39:38.790Z,26.50
2018-08-04T07:42:07.222Z,26.60
2018-08-04T07:44:35.346Z,26.70
2018-08-04T07:47:03.552Z,26.80
2018-08-04T07:49:31.712Z,26.90
2018-08-04T07:51:59.797Z,27.00
2018-08-04T07:54:27.886Z,27.10
2018-08-04T07:56:55.958Z,27.20
2018-08-04T07:59:24.085Z,27.30
2018-08-04T08:01:52.261Z,27.40
2018-08-04T08:04:20.418Z,27.50
2018-08-04T08:06:48.504Z,27.60
2018-08-04T08:09:16.603Z,27.70
2018-08-04T08:11:44.774Z,27.80
2018-08-04T08:14:12.870Z,27.90
2018-08-04T08:16:41.063Z,28.00
2018-08-04T08:19:09.694Z,28.10
2018-08-04T08:21:37.851Z,28.20
2018-08-04T08:24:05.949Z,28.30
2018-08-04T08:26:34.126Z,28.40
2018-08-04T08:29:02.326Z,28.50
2018-08-04T08:31:30.534Z,28.60
2018-08-04T08:33:58.679Z,28.80
2018-08-04T08:36:26.742Z,28.90
2018-08-04T08:38:54.841Z,29.00
2018-08-04T08:41:23.019Z,29.10
2018-08-04T08:43:51.223Z,29.30
2018-08-04T08:46:19.403Z,29.40
2018-08-04T08:48:47.597Z,29.60
2018-08-04T08:51:15.662Z,29.70
2018-08-04T08:53:43.827Z,29.90
2018-08-04T08:56:11.942Z,30.10
2018-08-04T08:58:40.031Z,30.30
2018-08-04T09:01:08.141Z,30.40
2018-08-04T09:03:36.312Z,30.60
2018-08-04T09:06:04.497Z,30.60
2018-08-04T09:08:32.676Z,30.70
2018-08-04T09:11:00.762Z,30.80
2018-08-04T09:13:28.954Z,30.90
2018-08-04T09:15:57.034Z,30.90
2018-08-04T09:18:25.283Z,31.00
2018-08-04T09:20:53.538Z,31.10
2018-08-04T09:23:21.738Z,31.20
2018-08-04T09:25:49.914Z,31.20
2018-08-04T09:28:18.081Z,31.30
2018-08-04T09:30:46.250Z,31.40
2018-08-04T09:33:14.344Z,31.60
2018-08-04T09:35:42.633Z,31.70
2018-08-04T09:38:10.738Z,31.70
2018-08-04T09:40:38.984Z,31.90
2018-08-04T09:43:07.089Z,32.10
2018-08-04T09:45:35.271Z,32.10
2018-08-04T09:48:03.364Z,32.40
2018-08-04T09:50:31.449Z,32.60
2018-08-04T09:52:59.641Z,32.80
2018-08-04T09:55:27.809Z,33.10
2018-08-04T09:57:55.903Z,33.30
2018-08-04T10:00:29.317Z,33.50
2018-08-04T10:02:57.493Z,33.70
2018-08-04T10:05:25.685Z,33.80
2018-08-04T10:07:53.863Z,33.70
2018-08-04T10:10:22.051Z,33.80
2018-08-04T10:12:50.158Z,34.00
2018-08-04T10:15:18.434Z,34.20
2018-08-04T10:17:46.609Z,34.20
2018-08-04T10:20:14.720Z,34.20
2018-08-04T10:22:42.906Z,34.10
2018-08-04T10:25:11.082Z,34.20
2018-08-04T10:27:39.258Z,34.30
2018-08-04T10:30:09.358Z,34.50
2018-08-04T10:32:37.558Z,34.80
2018-08-04T10:35:06.001Z,34.80
2018-08-04T10:37:34.163Z,34.70
2018-08-04T10:40:02.372Z,34.40
2018-08-04T10:42:30.445Z,34.20
2018-08-04T10:44:58.625Z,34.00
2018-08-04T10:47:26.801Z,34.10
2018-08-04T10:49:54.885Z,34.40
2018-08-04T10:52:22.974Z,34.90
2018-08-04T10:54:51.163Z,35.30
2018-08-04T10:57:19.376Z,35.60
2018-08-04T10:59:47.641Z,35.70
2018-08-04T11:02:15.728Z,35.70
2018-08-04T11:04:43.912Z,36.00
2018-08-04T11:07:12.014Z,36.50
2018-08-04T11:09:40.198Z,36.80
2018-08-04T11:12:08.371Z,36.70
2018-08-04T11:14:37.474Z,36.30
2018-08-04T11:17:05.706Z,36.20
2018-08-04T11:19:33.922Z,36.00
2018-08-04T11:22:02.006Z,35.60
2018-08-04T11:24:30.165Z,35.30
2018-08-04T11:26:58.306Z,35.40
2018-08-04T11:29:26.491Z,35.80
2018-08-04T11:31:54.602Z,35.80
2018-08-04T11:34:22.702Z,35.70
2018-08-04T11:36:50.841Z,35.50
2018-08-04T11:39:18.936Z,35.20
2018-08-04T11:41:47.109Z,35.20
2018-08-04T11:44:15.218Z,35.30
2018-08-04T11:46:43.278Z,35.20
2018-08-04T11:49:11.378Z,35.10
2018-08-04T11:51:39.504Z,34.90
2018-08-04T11:54:07.606Z,34.70
2018-08-04T11:56:35.729Z,34.40
2018-08-04T11:59:03.821Z,34.20
2018-08-04T12:01:31.893Z,33.90
2018-08-04T12:04:00.082Z,33.70
2018-08-04T12:06:28.350Z,33.60
2018-08-04T12:08:56.466Z,33.50
2018-08-04T12:11:24.597Z,33.40
2018-08-04T12:13:52.730Z,33.40
2018-08-04T12:16:21.065Z,33.30
2018-08-04T12:18:49.193Z,33.30
2018-08-04T12:21:17.285Z,33.20
2018-08-04T12:23:45.379Z,33.20
2018-08-04T12:26:13.565Z,33.20
2018-08-04T12:28:41.750Z,33.10
2018-08-04T12:31:09.933Z,33.10
2018-08-04T12:33:38.030Z,33.10
2018-08-04T12:36:06.232Z,33.10
2018-08-04T12:38:34.425Z,33.20
2018-08-04T12:41:02.575Z,33.40
2018-08-04T12:43:30.677Z,33.70
2018-08-04T12:45:58.838Z,34.00
2018-08-04T12:48:29.521Z,34.20
2018-08-04T12:50:59.246Z,34.20
2018-08-04T12:53:27.533Z,34.30
2018-08-04T12:55:55.717Z,34.60
2018-08-04T12:58:23.898Z,35.00
2018-08-04T13:00:52.208Z,35.70
2018-08-04T13:03:20.499Z,36.40
2018-08-04T13:05:48.676Z,37.00
2018-08-04T13:08:17.066Z,37.40
2018-08-04T13:10:45.566Z,37.60
2018-08-04T13:13:13.713Z,37.90
2018-08-04T13:15:41.798Z,38.20
2018-08-04T13:18:09.949Z,38.40
2018-08-04T13:20:38.073Z,38.50
2018-08-04T13:23:06.304Z,38.70
2018-08-04T13:25:34.429Z,38.90
2018-08-04T13:28:02.550Z,39.10
2018-08-04T13:30:30.780Z,39.30
2018-08-04T13:32:58.907Z,39.40
2018-08-04T13:35:27.086Z,39.60
2018-08-04T13:37:55.161Z,39.90
2018-08-04T13:40:23.269Z,40.00
2018-08-04T13:42:51.443Z,40.00
2018-08-04T13:45:19.550Z,40.10
2018-08-04T13:47:47.710Z,40.30
2018-08-04T13:50:15.833Z,40.50
2018-08-04T13:52:43.898Z,40.60
2018-08-04T13:55:12.069Z,40.50
2018-08-04T14:00:08.289Z,39.50
2018-08-04T14:02:36.555Z,38.60
2018-08-04T14:05:04.871Z,37.80
2018-08-04T14:07:32.945Z,37.00
2018-08-04T14:10:01.109Z,36.30
2018-08-04T14:12:29.507Z,35.70
2018-08-04T14:14:57.674Z,34.60
2018-08-04T14:17:25.884Z,33.80
2018-08-04T14:19:53.957Z,33.20
2018-08-04T14:22:22.142Z,32.70
2018-08-04T14:24:50.306Z,32.30
2018-08-04T14:27:18.434Z,32.10
2018-08-04T14:29:47.398Z,31.90
2018-08-04T14:34:43.476Z,31.80
2018-08-04T14:37:11.573Z,31.70
2018-08-04T14:39:39.742Z,31.50
2018-08-04T14:42:07.871Z,31.30
2018-08-04T14:44:36.001Z,31.20
2018-08-04T14:47:04.131Z,31.20
2018-08-04T14:49:32.286Z,31.20
2018-08-04T14:52:00.357Z,31.20
2018-08-04T14:54:28.469Z,31.10
2018-08-04T14:56:56.637Z,31.20
2018-08-04T14:59:24.718Z,31.20
2018-08-04T15:01:52.850Z,31.20
2018-08-04T15:04:21.054Z,31.50
2018-08-04T15:06:49.094Z,31.80
2018-08-04T15:09:17.263Z,31.90
2018-08-04T15:11:45.374Z,32.00
2018-08-04T15:14:13.533Z,32.00
2018-08-04T15:16:41.620Z,31.80
2018-08-04T15:19:09.744Z,31.60
2018-08-04T15:21:37.967Z,31.20
2018-08-04T15:24:06.130Z,31.30
2018-08-04T15:26:34.275Z,31.50
2018-08-04T15:29:02.470Z,31.50
2018-08-04T15:31:30.672Z,31.30
2018-08-04T15:33:58.886Z,31.20
2018-08-04T15:36:27.019Z,31.20
2018-08-04T15:38:55.214Z,31.40
2018-08-04T15:41:23.401Z,31.50
2018-08-04T15:43:51.573Z,31.60
2018-08-04T15:46:19.663Z,31.70
2018-08-04T15:48:47.845Z,31.80
2018-08-04T15:51:16.076Z,31.50
2018-08-04T15:53:44.214Z,31.20
2018-08-04T15:56:12.317Z,30.90
2018-08-04T15:58:40.484Z,30.70
2018-08-04T16:01:08.577Z,30.60
2018-08-04T16:03:36.687Z,30.80
2018-08-04T16:06:04.865Z,31.10
2018-08-04T16:08:33.030Z,31.40
2018-08-04T16:11:01.118Z,31.60
2018-08-04T16:13:29.198Z,31.90
2018-08-04T16:15:57.319Z,32.00
2018-08-04T16:18:25.498Z,31.80
2018-08-04T16:20:53.699Z,31.70
2018-08-04T16:23:21.845Z,31.80
2018-08-04T16:25:49.921Z,32.10
2018-08-04T16:28:18.017Z,32.30
2018-08-04T16:30:46.092Z,32.40
2018-08-04T16:33:14.189Z,32.40
2018-08-04T16:35:42.369Z,32.00
2018-08-04T16:38:10.465Z,32.00
2018-08-04T16:40:38.645Z,32.00
2018-08-04T16:43:06.826Z,32.10
2018-08-04T16:45:34.931Z,32.10
2018-08-04T16:48:03.246Z,32.10
2018-08-04T16:50:32.446Z,32.20
2018-08-04T16:53:00.602Z,32.10
2018-08-04T16:55:28.787Z,32.10
2018-08-04T16:57:56.880Z,32.20
2018-08-04T17:00:24.948Z,32.20
2018-08-04T17:02:53.037Z,32.20
2018-08-04T17:05:21.230Z,32.30
2018-08-04T17:07:49.549Z,32.20
2018-08-04T17:10:17.725Z,32.30
2018-08-04T17:12:45.894Z,32.20
2018-08-04T17:15:14.070Z,32.20
2018-08-04T17:17:42.167Z,32.20
2018-08-04T17:20:10.342Z,32.20
2018-08-04T17:22:38.439Z,32.20
2018-08-04T17:25:06.610Z,32.20
2018-08-04T17:27:34.709Z,32.20
2018-08-04T17:30:02.781Z,32.20
2018-08-04T17:32:31.329Z,32.20
2018-08-04T17:34:59.581Z,32.20
2018-08-04T17:37:27.802Z,32.20
2018-08-04T17:39:55.834Z,32.20
2018-08-04T17:42:23.937Z,32.20
2018-08-04T17:44:52.102Z,32.20
2018-08-04T17:47:20.201Z,32.20
2018-08-04T17:49:48.274Z,32.20
2018-08-04T17:52:16.370Z,32.10
2018-08-04T17:54:44.546Z,32.10
2018-08-04T17:57:12.716Z,32.00
2018-08-04T17:59:41.733Z,31.90
2018-08-04T18:02:09.837Z,31.90
2018-08-04T18:04:37.901Z,31.90
2018-08-04T18:07:05.985Z,31.90
2018-08-04T18:09:34.091Z,31.80
2018-08-04T18:12:02.281Z,31.80
2018-08-04T18:14:30.446Z,31.70
2018-08-04T18:16:58.543Z,31.70
2018-08-04T18:19:26.630Z,31.60
2018-08-04T18:21:54.706Z,31.50
2018-08-04T18:24:23.130Z,31.50
2018-08-04T18:26:51.229Z,31.40
2018-08-04T18:29:19.377Z,31.40
2018-08-04T18:31:47.553Z,31.30
2018-08-04T18:34:15.646Z,31.20
2018-08-04T18:36:43.713Z,31.10
2018-08-04T18:41:40.036Z,31.10
2018-08-04T18:44:08.181Z,31.00
2018-08-04T18:46:36.270Z,31.00
2018-08-04T18:49:04.355Z,31.00
2018-08-04T18:51:32.434Z,30.90
2018-08-04T18:54:00.529Z,30.80
2018-08-04T18:56:28.697Z,30.80
2018-08-04T19:01:24.766Z,30.70
2018-08-04T19:03:52.857Z,30.70
2018-08-04T19:06:21.062Z,30.70
2018-08-04T19:08:49.238Z,30.60
2018-08-04T19:11:17.430Z,30.60
2018-08-04T19:13:45.605Z,30.50
2018-08-04T19:16:13.695Z,30.40
2018-08-04T19:18:41.787Z,30.30
2018-08-04T19:21:09.865Z,30.30
2018-08-04T19:23:38.054Z,30.20
2018-08-04T19:26:06.266Z,30.10
2018-08-04T19:28:34.477Z,30.00
2018-08-04T19:31:02.619Z,30.00
2018-08-04T19:33:30.808Z,30.00
2018-08-04T19:35:58.986Z,29.90
2018-08-04T19:38:27.089Z,29.90
2018-08-04T19:40:55.282Z,29.90
2018-08-04T19:43:23.462Z,29.80
2018-08-04T19:45:51.709Z,29.80
2018-08-04T19:48:19.865Z,29.70
2018-08-04T19:50:47.990Z,29.70
2018-08-04T19:53:16.114Z,29.60
2018-08-04T19:55:44.286Z,29.50
2018-08-04T19:58:12.367Z,29.40
2018-08-04T20:00:40.539Z,29.40
2018-08-04T20:03:08.683Z,29.30
2018-08-04T20:05:36.810Z,29.30
2018-08-04T20:08:05.127Z,29.20
2018-08-04T20:10:33.529Z,29.20
2018-08-04T20:13:01.692Z,29.20
2018-08-04T20:15:29.759Z,29.20
2018-08-04T20:17:57.849Z,29.20
2018-08-04T20:20:25.953Z,29.20
2018-08-04T20:22:54.131Z,29.20
2018-08-04T20:25:22.314Z,29.20
2018-08-04T20:27:50.733Z,29.10
2018-08-04T20:30:18.878Z,29.10
2018-08-04T20:32:46.993Z,29.00
2018-08-04T20:35:15.171Z,29.00
2018-08-04T20:37:43.368Z,29.00
2018-08-04T20:40:11.558Z,29.00
2018-08-04T20:42:39.709Z,29.00
2018-08-04T20:45:07.805Z,29.00
2018-08-04T20:47:35.886Z,29.00
2018-08-04T20:50:04.257Z,29.00
2018-08-04T20:52:32.370Z,29.00
2018-08-04T20:55:00.589Z,28.90
2018-08-04T20:57:28.741Z,28.90
2018-08-04T20:59:56.947Z,28.90
2018-08-04T21:02:25.153Z,28.80
2018-08-04T21:04:53.294Z,28.80
2018-08-04T21:07:21.385Z,28.70
2018-08-04T21:09:49.489Z,28.70
2018-08-04T21:12:17.660Z,28.70
2018-08-04T21:14:45.841Z,28.70
2018-08-04T21:17:13.918Z,28.60
2018-08-04T21:19:42.017Z,28.60
2018-08-04T21:22:10.094Z,28.50
2018-08-04T21:24:38.186Z,28.50
2018-08-04T21:27:06.363Z,28.40
2018-08-04T21:29:34.456Z,28.40
2018-08-04T21:32:02.525Z,28.30
2018-08-04T21:34:30.617Z,28.30
2018-08-04T21:36:58.702Z,28.20
2018-08-04T21:39:26.892Z,28.20
2018-08-04T21:41:54.965Z,28.20
2018-08-04T21:44:23.083Z,28.20
2018-08-04T21:46:51.781Z,28.10
2018-08-04T21:49:20.509Z,28.10
2018-08-04T21:51:49.695Z,28.10
2018-08-04T21:54:19.918Z,28.00
2018-08-04T21:56:47.098Z,28.00
2018-08-04T21:59:15.253Z,28.00
2018-08-04T22:01:48.661Z,28.00
2018-08-04T22:04:16.785Z,27.90
2018-08-04T22:07:54.801Z,27.90
2018-08-04T22:10:22.959Z,27.90
2018-08-04T22:12:51.103Z,27.90
2018-08-04T22:15:19.238Z,27.90
2018-08-04T22:17:47.314Z,27.80
2018-08-04T22:20:17.895Z,27.80
2018-08-04T22:22:45.966Z,27.70
2018-08-04T22:25:15.398Z,27.70
2018-08-04T22:27:43.574Z,27.70
2018-08-04T22:30:12.895Z,27.70
2018-08-04T22:32:41.590Z,27.70
2018-08-04T22:35:09.753Z,27.60
2018-08-04T22:37:38.577Z,27.60
2018-08-04T22:40:07.281Z,27.50
2018-08-04T22:42:35.774Z,27.40
2018-08-04T22:45:15.466Z,27.30
2018-08-04T22:47:43.919Z,27.30
2018-08-04T22:50:12.111Z,27.30
2018-08-04T22:52:40.398Z,27.30
2018-08-04T22:55:08.901Z,27.20
2018-08-04T22:57:37.184Z,27.20
2018-08-04T23:00:06.354Z,27.10
2018-08-04T23:02:34.438Z,27.10
2018-08-04T23:05:02.534Z,27.10
2018-08-04T23:07:30.614Z,27.10
2018-08-04T23:09:58.713Z,27.10
2018-08-04T23:12:26.883Z,27.10
2018-08-04T23:14:54.982Z,27.10
2018-08-04T23:17:23.159Z,27.10
2018-08-04T23:19:51.252Z,27.10
2018-08-04T23:22:19.423Z,27.00
2018-08-04T23:24:47.513Z,26.90
2018-08-04T23:27:15.597Z,26.80
2018-08-04T23:29:43.681Z,26.70
2018-08-04T23:32:11.770Z,26.70
2018-08-04T23:34:39.858Z,26.60
2018-08-04T23:37:08.210Z,26.60
2018-08-04T23:39:36.345Z,26.60
2018-08-04T23:42:04.518Z,26.60
2018-08-04T23:44:32.601Z,26.60
2018-08-04T23:47:00.678Z,26.50
2018-08-04T23:49:28.780Z,26.50
2018-08-04T23:51:56.946Z,26.40
2018-08-04T23:54:25.083Z,26.40
2018-08-04T23:56:53.225Z,26.30
2018-08-04T23:59:21.312Z,26.20
